sensor_id;sensor_type;location;lat;lon;timestamp;P1;durP1;ratioP1;P2;durP2;ratioP2
82372;SDS011;72000;42.828;23.382;2023-09-12T00:04:35;5.45;;;1.98;;
82372;SDS011;72000;42.828;23.382;2023-09-12T00:09:26;3.88;;;2.00;;
82372;SDS011;72000;42.828;23.382;2023-09-12T00:11:53;5.20;;;1.80;;
82372;SDS011;72000;42.828;23.382;2023-09-12T00:14:19;4.78;;;2.08;;
82372;SDS011;72000;42.828;23.382;2023-09-12T00:19:10;4.40;;;2.00;;
82372;SDS011;72000;42.828;23.382;2023-09-12T00:24:01;5.60;;;1.80;;
82372;SDS011;72000;42.828;23.382;2023-09-12T00:28:56;4.07;;;2.10;;
82372;SDS011;72000;42.828;23.382;2023-09-12T00:33:47;5.13;;;1.85;;
82372;SDS011;72000;42.828;23.382;2023-09-12T00:38:38;4.00;;;1.90;;
82372;SDS011;72000;42.828;23.382;2023-09-12T00:43:29;5.60;;;2.00;;
82372;SDS011;72000;42.828;23.382;2023-09-12T00:45:54;4.50;;;1.67;;
82372;SDS011;72000;42.828;23.382;2023-09-12T00:50:46;5.03;;;1.98;;
82372;SDS011;72000;42.828;23.382;2023-09-12T00:53:12;5.90;;;1.90;;
82372;SDS011;72000;42.828;23.382;2023-09-12T00:55:40;5.35;;;1.80;;
82372;SDS011;72000;42.828;23.382;2023-09-12T00:58:09;5.88;;;1.88;;
82372;SDS011;72000;42.828;23.382;2023-09-12T01:03:00;7.75;;;2.28;;
82372;SDS011;72000;42.828;23.382;2023-09-12T01:07:54;5.10;;;2.10;;
82372;SDS011;72000;42.828;23.382;2023-09-12T01:12:45;5.10;;;1.90;;
82372;SDS011;72000;42.828;23.382;2023-09-12T01:17:40;4.45;;;1.70;;
82372;SDS011;72000;42.828;23.382;2023-09-12T01:20:06;3.78;;;1.67;;
82372;SDS011;72000;42.828;23.382;2023-09-12T01:22:38;4.03;;;1.60;;
82372;SDS011;72000;42.828;23.382;2023-09-12T01:25:24;4.55;;;1.60;;
82372;SDS011;72000;42.828;23.382;2023-09-12T01:28:18;3.75;;;1.50;;
82372;SDS011;72000;42.828;23.382;2023-09-12T01:30:45;3.72;;;1.50;;
82372;SDS011;72000;42.828;23.382;2023-09-12T01:33:11;4.10;;;1.50;;
82372;SDS011;72000;42.828;23.382;2023-09-12T01:38:02;3.65;;;1.63;;
82372;SDS011;72000;42.828;23.382;2023-09-12T01:43:02;3.92;;;1.50;;
82372;SDS011;72000;42.828;23.382;2023-09-12T01:45:29;3.30;;;1.40;;
82372;SDS011;72000;42.828;23.382;2023-09-12T01:50:20;4.10;;;1.30;;
82372;SDS011;72000;42.828;23.382;2023-09-12T01:52:47;3.75;;;1.30;;
82372;SDS011;72000;42.828;23.382;2023-09-12T01:57:42;3.13;;;1.25;;
82372;SDS011;72000;42.828;23.382;2023-09-12T02:00:08;4.13;;;1.50;;
82372;SDS011;72000;42.828;23.382;2023-09-12T02:02:34;4.13;;;1.40;;
82372;SDS011;72000;42.828;23.382;2023-09-12T02:07:25;4.18;;;1.23;;
82372;SDS011;72000;42.828;23.382;2023-09-12T02:09:52;4.03;;;1.38;;
82372;SDS011;72000;42.828;23.382;2023-09-12T02:14:43;3.95;;;1.40;;
82372;SDS011;72000;42.828;23.382;2023-09-12T02:19:34;3.88;;;1.30;;
82372;SDS011;72000;42.828;23.382;2023-09-12T02:24:27;6.07;;;1.45;;
82372;SDS011;72000;42.828;23.382;2023-09-12T02:26:56;4.80;;;1.30;;
82372;SDS011;72000;42.828;23.382;2023-09-12T02:29:21;3.30;;;1.20;;
82372;SDS011;72000;42.828;23.382;2023-09-12T02:31:47;3.40;;;1.50;;
82372;SDS011;72000;42.828;23.382;2023-09-12T02:36:38;4.75;;;1.60;;
82372;SDS011;72000;42.828;23.382;2023-09-12T02:41:29;3.83;;;1.33;;
82372;SDS011;72000;42.828;23.382;2023-09-12T02:46:20;3.63;;;1.33;;
82372;SDS011;72000;42.828;23.382;2023-09-12T02:48:46;4.43;;;1.20;;
82372;SDS011;72000;42.828;23.382;2023-09-12T02:53:40;2.50;;;1.25;;
82372;SDS011;72000;42.828;23.382;2023-09-12T02:58:31;2.72;;;1.20;;
82372;SDS011;72000;42.828;23.382;2023-09-12T03:03:22;3.53;;;1.20;;
82372;SDS011;72000;42.828;23.382;2023-09-12T03:08:13;4.47;;;1.30;;
82372;SDS011;72000;42.828;23.382;2023-09-12T03:13:07;5.55;;;1.40;;
82372;SDS011;72000;42.828;23.382;2023-09-12T03:15:36;2.60;;;1.33;;
82372;SDS011;72000;42.828;23.382;2023-09-12T03:18:02;5.47;;;1.50;;
82372;SDS011;72000;42.828;23.382;2023-09-12T03:20:31;3.45;;;1.20;;
82372;SDS011;72000;42.828;23.382;2023-09-12T03:22:57;2.88;;;1.30;;
82372;SDS011;72000;42.828;23.382;2023-09-12T03:27:51;4.40;;;1.20;;
82372;SDS011;72000;42.828;23.382;2023-09-12T03:32:42;3.80;;;1.25;;
82372;SDS011;72000;42.828;23.382;2023-09-12T03:35:07;3.92;;;1.20;;
82372;SDS011;72000;42.828;23.382;2023-09-12T03:39:58;2.17;;;1.10;;
82372;SDS011;72000;42.828;23.382;2023-09-12T03:44:49;4.47;;;1.30;;
82372;SDS011;72000;42.828;23.382;2023-09-12T03:47:15;4.35;;;1.25;;
82372;SDS011;72000;42.828;23.382;2023-09-12T03:49:40;3.45;;;1.20;;
82372;SDS011;72000;42.828;23.382;2023-09-12T03:52:09;3.13;;;1.13;;
82372;SDS011;72000;42.828;23.382;2023-09-12T03:54:35;2.40;;;1.10;;
82372;SDS011;72000;42.828;23.382;2023-09-12T03:57:00;3.33;;;1.30;;
82372;SDS011;72000;42.828;23.382;2023-09-12T04:01:51;3.50;;;1.20;;
82372;SDS011;72000;42.828;23.382;2023-09-12T04:06:42;2.88;;;1.10;;
82372;SDS011;72000;42.828;23.382;2023-09-12T04:11:33;2.60;;;1.25;;
82372;SDS011;72000;42.828;23.382;2023-09-12T04:16:24;5.38;;;1.20;;
82372;SDS011;72000;42.828;23.382;2023-09-12T04:21:15;3.60;;;1.45;;
82372;SDS011;72000;42.828;23.382;2023-09-12T04:23:41;3.13;;;1.10;;
82372;SDS011;72000;42.828;23.382;2023-09-12T04:26:06;5.18;;;1.30;;
82372;SDS011;72000;42.828;23.382;2023-09-12T04:28:32;2.53;;;1.20;;
82372;SDS011;72000;42.828;23.382;2023-09-12T04:33:26;2.55;;;1.13;;
82372;SDS011;72000;42.828;23.382;2023-09-12T04:35:52;2.63;;;1.05;;
82372;SDS011;72000;42.828;23.382;2023-09-12T04:40:53;3.50;;;1.20;;
82372;SDS011;72000;42.828;23.382;2023-09-12T04:43:19;2.22;;;1.20;;
82372;SDS011;72000;42.828;23.382;2023-09-12T04:45:44;3.22;;;1.05;;
82372;SDS011;72000;42.828;23.382;2023-09-12T04:50:40;2.90;;;1.20;;
82372;SDS011;72000;42.828;23.382;2023-09-12T04:53:07;2.58;;;1.20;;
82372;SDS011;72000;42.828;23.382;2023-09-12T04:55:34;3.95;;;1.50;;
82372;SDS011;72000;42.828;23.382;2023-09-12T04:58:01;6.25;;;1.40;;
82372;SDS011;72000;42.828;23.382;2023-09-12T05:00:26;2.92;;;1.42;;
82372;SDS011;72000;42.828;23.382;2023-09-12T05:02:52;3.15;;;1.30;;
82372;SDS011;72000;42.828;23.382;2023-09-12T05:07:43;6.40;;;1.30;;
82372;SDS011;72000;42.828;23.382;2023-09-12T05:10:08;5.95;;;1.23;;
82372;SDS011;72000;42.828;23.382;2023-09-12T05:14:59;4.80;;;1.20;;
82372;SDS011;72000;42.828;23.382;2023-09-12T05:19:50;5.82;;;1.45;;
82372;SDS011;72000;42.828;23.382;2023-09-12T05:24:41;3.35;;;1.20;;
82372;SDS011;72000;42.828;23.382;2023-09-12T05:29:32;2.85;;;1.30;;
82372;SDS011;72000;42.828;23.382;2023-09-12T05:34:23;3.15;;;1.35;;
82372;SDS011;72000;42.828;23.382;2023-09-12T05:39:14;3.53;;;1.30;;
82372;SDS011;72000;42.828;23.382;2023-09-12T05:44:05;3.40;;;1.48;;
82372;SDS011;72000;42.828;23.382;2023-09-12T05:46:31;3.45;;;1.40;;
82372;SDS011;72000;42.828;23.382;2023-09-12T05:51:22;2.90;;;1.25;;
82372;SDS011;72000;42.828;23.382;2023-09-12T05:53:47;3.85;;;1.40;;
82372;SDS011;72000;42.828;23.382;2023-09-12T05:58:38;4.55;;;1.30;;
82372;SDS011;72000;42.828;23.382;2023-09-12T06:01:07;5.03;;;1.60;;
82372;SDS011;72000;42.828;23.382;2023-09-12T06:03:34;5.65;;;1.73;;
82372;SDS011;72000;42.828;23.382;2023-09-12T06:05:59;4.00;;;1.50;;
82372;SDS011;72000;42.828;23.382;2023-09-12T06:08:25;3.88;;;1.60;;
82372;SDS011;72000;42.828;23.382;2023-09-12T06:10:50;5.03;;;1.90;;
82372;SDS011;72000;42.828;23.382;2023-09-12T06:13:19;3.97;;;1.85;;
82372;SDS011;72000;42.828;23.382;2023-09-12T06:18:10;6.15;;;2.08;;
82372;SDS011;72000;42.828;23.382;2023-09-12T06:23:01;3.70;;;1.60;;
82372;SDS011;72000;42.828;23.382;2023-09-12T06:25:28;7.00;;;1.95;;
82372;SDS011;72000;42.828;23.382;2023-09-12T06:27:54;5.97;;;2.03;;
82372;SDS011;72000;42.828;23.382;2023-09-12T06:30:20;5.68;;;2.08;;
82372;SDS011;72000;42.828;23.382;2023-09-12T06:35:12;3.85;;;1.80;;
82372;SDS011;72000;42.828;23.382;2023-09-12T06:40:04;5.03;;;1.92;;
82372;SDS011;72000;42.828;23.382;2023-09-12T06:42:31;5.53;;;2.25;;
82372;SDS011;72000;42.828;23.382;2023-09-12T06:47:22;4.82;;;1.95;;
82372;SDS011;72000;42.828;23.382;2023-09-12T06:52:13;5.05;;;1.80;;
82372;SDS011;72000;42.828;23.382;2023-09-12T06:57:04;5.35;;;1.90;;
82372;SDS011;72000;42.828;23.382;2023-09-12T07:01:55;3.67;;;1.60;;
82372;SDS011;72000;42.828;23.382;2023-09-12T07:06:46;5.78;;;2.00;;
82372;SDS011;72000;42.828;23.382;2023-09-12T07:11:40;5.82;;;1.88;;
82372;SDS011;72000;42.828;23.382;2023-09-12T07:14:06;5.68;;;2.40;;
82372;SDS011;72000;42.828;23.382;2023-09-12T07:18:57;4.55;;;2.00;;
82372;SDS011;72000;42.828;23.382;2023-09-12T07:23:48;6.43;;;2.20;;
82372;SDS011;72000;42.828;23.382;2023-09-12T07:28:40;6.65;;;2.35;;
82372;SDS011;72000;42.828;23.382;2023-09-12T07:31:05;5.45;;;1.95;;
82372;SDS011;72000;42.828;23.382;2023-09-12T07:35:57;4.10;;;1.80;;
82372;SDS011;72000;42.828;23.382;2023-09-12T07:38:22;5.35;;;2.20;;
82372;SDS011;72000;42.828;23.382;2023-09-12T07:43:13;5.90;;;1.75;;
82372;SDS011;72000;42.828;23.382;2023-09-12T07:45:39;4.40;;;1.88;;
82372;SDS011;72000;42.828;23.382;2023-09-12T07:48:08;4.60;;;1.70;;
82372;SDS011;72000;42.828;23.382;2023-09-12T07:50:35;5.63;;;1.80;;
82372;SDS011;72000;42.828;23.382;2023-09-12T07:53:04;6.43;;;2.03;;
82372;SDS011;72000;42.828;23.382;2023-09-12T07:55:36;4.80;;;1.85;;
82372;SDS011;72000;42.828;23.382;2023-09-12T07:58:10;5.05;;;1.90;;
82372;SDS011;72000;42.828;23.382;2023-09-12T08:00:40;4.88;;;2.03;;
82372;SDS011;72000;42.828;23.382;2023-09-12T08:03:06;3.92;;;1.77;;
82372;SDS011;72000;42.828;23.382;2023-09-12T08:05:31;6.78;;;1.95;;
82372;SDS011;72000;42.828;23.382;2023-09-12T08:07:57;4.00;;;1.88;;
82372;SDS011;72000;42.828;23.382;2023-09-12T08:10:22;4.82;;;2.10;;
82372;SDS011;72000;42.828;23.382;2023-09-12T08:12:48;5.10;;;2.13;;
82372;SDS011;72000;42.828;23.382;2023-09-12T08:15:13;5.18;;;2.00;;
82372;SDS011;72000;42.828;23.382;2023-09-12T08:17:39;4.53;;;1.90;;
82372;SDS011;72000;42.828;23.382;2023-09-12T08:20:06;4.80;;;2.28;;
82372;SDS011;72000;42.828;23.382;2023-09-12T08:22:35;7.22;;;2.00;;
82372;SDS011;72000;42.828;23.382;2023-09-12T08:25:04;4.05;;;2.00;;
82372;SDS011;72000;42.828;23.382;2023-09-12T08:27:29;6.43;;;1.77;;
82372;SDS011;72000;42.828;23.382;2023-09-12T08:29:55;5.45;;;1.88;;
82372;SDS011;72000;42.828;23.382;2023-09-12T08:32:21;6.25;;;2.20;;
82372;SDS011;72000;42.828;23.382;2023-09-12T08:34:46;5.22;;;2.10;;
82372;SDS011;72000;42.828;23.382;2023-09-12T08:37:12;4.43;;;2.08;;
82372;SDS011;72000;42.828;23.382;2023-09-12T08:39:43;7.03;;;2.22;;
82372;SDS011;72000;42.828;23.382;2023-09-12T08:42:13;4.47;;;2.00;;
82372;SDS011;72000;42.828;23.382;2023-09-12T08:44:40;3.70;;;1.80;;
82372;SDS011;72000;42.828;23.382;2023-09-12T08:47:07;4.35;;;1.85;;
82372;SDS011;72000;42.828;23.382;2023-09-12T08:49:35;3.72;;;1.70;;
82372;SDS011;72000;42.828;23.382;2023-09-12T08:52:01;3.42;;;1.60;;
82372;SDS011;72000;42.828;23.382;2023-09-12T08:54:27;3.78;;;1.58;;
82372;SDS011;72000;42.828;23.382;2023-09-12T08:56:53;4.43;;;1.70;;
82372;SDS011;72000;42.828;23.382;2023-09-12T08:59:19;5.18;;;1.45;;
82372;SDS011;72000;42.828;23.382;2023-09-12T09:01:45;5.05;;;1.48;;
82372;SDS011;72000;42.828;23.382;2023-09-12T09:04:12;4.75;;;1.77;;
82372;SDS011;72000;42.828;23.382;2023-09-12T09:06:38;3.60;;;1.75;;
82372;SDS011;72000;42.828;23.382;2023-09-12T09:09:05;3.75;;;1.90;;
82372;SDS011;72000;42.828;23.382;2023-09-12T09:11:33;5.25;;;1.75;;
82372;SDS011;72000;42.828;23.382;2023-09-12T09:14:00;4.22;;;1.80;;
82372;SDS011;72000;42.828;23.382;2023-09-12T09:16:28;3.58;;;1.65;;
82372;SDS011;72000;42.828;23.382;2023-09-12T09:18:54;4.88;;;1.75;;
82372;SDS011;72000;42.828;23.382;2023-09-12T09:21:24;3.88;;;1.90;;
82372;SDS011;72000;42.828;23.382;2023-09-12T09:23:52;3.78;;;1.73;;
82372;SDS011;72000;42.828;23.382;2023-09-12T09:26:18;5.75;;;2.10;;
82372;SDS011;72000;42.828;23.382;2023-09-12T09:28:44;5.20;;;1.90;;
82372;SDS011;72000;42.828;23.382;2023-09-12T09:31:11;5.78;;;1.80;;
82372;SDS011;72000;42.828;23.382;2023-09-12T09:33:39;3.72;;;1.60;;
82372;SDS011;72000;42.828;23.382;2023-09-12T09:36:06;3.92;;;1.60;;
82372;SDS011;72000;42.828;23.382;2023-09-12T09:38:34;4.93;;;1.95;;
82372;SDS011;72000;42.828;23.382;2023-09-12T09:41:00;5.20;;;2.50;;
82372;SDS011;72000;42.828;23.382;2023-09-12T09:43:28;5.38;;;2.25;;
82372;SDS011;72000;42.828;23.382;2023-09-12T09:45:57;5.57;;;2.33;;
82372;SDS011;72000;42.828;23.382;2023-09-12T09:48:24;7.53;;;2.28;;
82372;SDS011;72000;42.828;23.382;2023-09-12T09:50:52;6.97;;;2.40;;
82372;SDS011;72000;42.828;23.382;2023-09-12T09:53:28;6.70;;;2.25;;
82372;SDS011;72000;42.828;23.382;2023-09-12T09:56:28;6.85;;;2.78;;
82372;SDS011;72000;42.828;23.382;2023-09-12T09:58:50;5.30;;;2.40;;
82372;SDS011;72000;42.828;23.382;2023-09-12T10:01:18;5.50;;;2.50;;
82372;SDS011;72000;42.828;23.382;2023-09-12T10:03:51;9.93;;;2.80;;
82372;SDS011;72000;42.828;23.382;2023-09-12T10:06:17;11.27;;;2.90;;
82372;SDS011;72000;42.828;23.382;2023-09-12T10:08:44;6.40;;;2.33;;
82372;SDS011;72000;42.828;23.382;2023-09-12T10:11:14;6.35;;;2.50;;
82372;SDS011;72000;42.828;23.382;2023-09-12T10:13:46;5.15;;;2.47;;
82372;SDS011;72000;42.828;23.382;2023-09-12T10:16:15;6.43;;;2.58;;
82372;SDS011;72000;42.828;23.382;2023-09-12T10:18:43;5.68;;;2.75;;
82372;SDS011;72000;42.828;23.382;2023-09-12T10:21:15;7.60;;;2.53;;
82372;SDS011;72000;42.828;23.382;2023-09-12T10:23:48;4.10;;;2.33;;
82372;SDS011;72000;42.828;23.382;2023-09-12T10:26:16;4.15;;;2.33;;
82372;SDS011;72000;42.828;23.382;2023-09-12T10:28:42;5.03;;;2.53;;
82372;SDS011;72000;42.828;23.382;2023-09-12T10:31:09;6.82;;;2.58;;
82372;SDS011;72000;42.828;23.382;2023-09-12T10:33:37;4.70;;;2.33;;
82372;SDS011;72000;42.828;23.382;2023-09-12T10:36:03;5.13;;;2.40;;
82372;SDS011;72000;42.828;23.382;2023-09-12T10:38:30;6.00;;;2.53;;
82372;SDS011;72000;42.828;23.382;2023-09-12T10:40:59;5.18;;;2.45;;
82372;SDS011;72000;42.828;23.382;2023-09-12T10:43:26;4.93;;;2.65;;
82372;SDS011;72000;42.828;23.382;2023-09-12T10:45:52;5.32;;;2.38;;
82372;SDS011;72000;42.828;23.382;2023-09-12T10:48:17;6.22;;;2.53;;
82372;SDS011;72000;42.828;23.382;2023-09-12T10:50:43;7.65;;;2.40;;
82372;SDS011;72000;42.828;23.382;2023-09-12T10:53:13;4.07;;;2.20;;
82372;SDS011;72000;42.828;23.382;2023-09-12T10:55:40;5.38;;;2.70;;
82372;SDS011;72000;42.828;23.382;2023-09-12T10:58:07;6.38;;;3.10;;
82372;SDS011;72000;42.828;23.382;2023-09-12T11:00:35;5.25;;;2.38;;
82372;SDS011;72000;42.828;23.382;2023-09-12T11:05:53;4.80;;;2.60;;
82372;SDS011;72000;42.828;23.382;2023-09-12T11:08:19;7.00;;;2.38;;
82372;SDS011;72000;42.828;23.382;2023-09-12T11:10:51;6.72;;;2.63;;
82372;SDS011;72000;42.828;23.382;2023-09-12T11:13:46;5.30;;;2.40;;
82372;SDS011;72000;42.828;23.382;2023-09-12T11:16:13;5.93;;;2.60;;
82372;SDS011;72000;42.828;23.382;2023-09-12T11:21:47;6.05;;;2.60;;
82372;SDS011;72000;42.828;23.382;2023-09-12T11:24:15;5.22;;;2.35;;
82372;SDS011;72000;42.828;23.382;2023-09-12T11:26:53;5.18;;;2.53;;
82372;SDS011;72000;42.828;23.382;2023-09-12T11:29:19;7.03;;;2.20;;
82372;SDS011;72000;42.828;23.382;2023-09-12T11:31:52;6.13;;;2.45;;
82372;SDS011;72000;42.828;23.382;2023-09-12T11:34:19;7.15;;;2.70;;
82372;SDS011;72000;42.828;23.382;2023-09-12T11:36:45;5.97;;;2.70;;
82372;SDS011;72000;42.828;23.382;2023-09-12T11:39:24;5.18;;;2.55;;
82372;SDS011;72000;42.828;23.382;2023-09-12T11:41:55;5.43;;;2.50;;
82372;SDS011;72000;42.828;23.382;2023-09-12T11:44:21;6.82;;;2.70;;
82372;SDS011;72000;42.828;23.382;2023-09-12T11:46:47;7.00;;;2.50;;
82372;SDS011;72000;42.828;23.382;2023-09-12T11:49:17;6.30;;;2.47;;
82372;SDS011;72000;42.828;23.382;2023-09-12T11:51:49;6.07;;;2.30;;
82372;SDS011;72000;42.828;23.382;2023-09-12T11:54:19;9.15;;;2.78;;
82372;SDS011;72000;42.828;23.382;2023-09-12T11:56:47;5.97;;;2.60;;
82372;SDS011;72000;42.828;23.382;2023-09-12T11:59:14;6.07;;;2.50;;
82372;SDS011;72000;42.828;23.382;2023-09-12T12:01:39;5.07;;;2.60;;
82372;SDS011;72000;42.828;23.382;2023-09-12T12:04:05;4.82;;;2.40;;
82372;SDS011;72000;42.828;23.382;2023-09-12T12:06:32;5.22;;;2.20;;
82372;SDS011;72000;42.828;23.382;2023-09-12T12:08:59;5.72;;;2.72;;
82372;SDS011;72000;42.828;23.382;2023-09-12T12:11:28;5.97;;;2.20;;
82372;SDS011;72000;42.828;23.382;2023-09-12T12:13:53;4.35;;;2.30;;
82372;SDS011;72000;42.828;23.382;2023-09-12T12:16:19;6.40;;;2.53;;
82372;SDS011;72000;42.828;23.382;2023-09-12T12:18:45;5.10;;;2.13;;
82372;SDS011;72000;42.828;23.382;2023-09-12T12:21:11;5.82;;;2.67;;
82372;SDS011;72000;42.828;23.382;2023-09-12T12:23:36;6.68;;;2.72;;
82372;SDS011;72000;42.828;23.382;2023-09-12T12:26:03;4.50;;;2.53;;
82372;SDS011;72000;42.828;23.382;2023-09-12T12:28:31;4.95;;;2.70;;
82372;SDS011;72000;42.828;23.382;2023-09-12T12:30:58;7.07;;;2.58;;
82372;SDS011;72000;42.828;23.382;2023-09-12T12:33:24;6.75;;;2.53;;
82372;SDS011;72000;42.828;23.382;2023-09-12T12:35:58;5.97;;;2.60;;
82372;SDS011;72000;42.828;23.382;2023-09-12T12:38:25;10.13;;;2.42;;
82372;SDS011;72000;42.828;23.382;2023-09-12T12:40:50;5.28;;;2.35;;
82372;SDS011;72000;42.828;23.382;2023-09-12T12:43:16;7.53;;;2.38;;
82372;SDS011;72000;42.828;23.382;2023-09-12T12:45:51;7.05;;;2.30;;
82372;SDS011;72000;42.828;23.382;2023-09-12T12:48:33;5.97;;;2.33;;
82372;SDS011;72000;42.828;23.382;2023-09-12T12:51:17;6.25;;;2.70;;
82372;SDS011;72000;42.828;23.382;2023-09-12T12:53:52;5.10;;;2.17;;
82372;SDS011;72000;42.828;23.382;2023-09-12T12:56:36;8.32;;;3.08;;
82372;SDS011;72000;42.828;23.382;2023-09-12T12:59:04;6.45;;;2.63;;
82372;SDS011;72000;42.828;23.382;2023-09-12T13:01:35;6.85;;;2.45;;
82372;SDS011;72000;42.828;23.382;2023-09-12T13:04:01;4.25;;;2.70;;
82372;SDS011;72000;42.828;23.382;2023-09-12T13:06:29;5.82;;;2.50;;
82372;SDS011;72000;42.828;23.382;2023-09-12T13:08:55;6.10;;;2.22;;
82372;SDS011;72000;42.828;23.382;2023-09-12T13:11:22;5.90;;;2.60;;
82372;SDS011;72000;42.828;23.382;2023-09-12T13:13:48;6.70;;;2.53;;
82372;SDS011;72000;42.828;23.382;2023-09-12T13:16:14;7.15;;;2.40;;
82372;SDS011;72000;42.828;23.382;2023-09-12T13:18:40;6.45;;;2.28;;
82372;SDS011;72000;42.828;23.382;2023-09-12T13:21:06;5.50;;;2.70;;
82372;SDS011;72000;42.828;23.382;2023-09-12T13:23:36;6.40;;;2.80;;
82372;SDS011;72000;42.828;23.382;2023-09-12T13:26:02;4.53;;;2.50;;
82372;SDS011;72000;42.828;23.382;2023-09-12T13:28:28;7.22;;;2.63;;
82372;SDS011;72000;42.828;23.382;2023-09-12T13:30:54;6.22;;;2.58;;
82372;SDS011;72000;42.828;23.382;2023-09-12T13:33:20;4.30;;;2.50;;
82372;SDS011;72000;42.828;23.382;2023-09-12T13:35:47;6.80;;;2.40;;
82372;SDS011;72000;42.828;23.382;2023-09-12T13:38:13;6.55;;;2.50;;
82372;SDS011;72000;42.828;23.382;2023-09-12T13:40:42;8.98;;;2.60;;
82372;SDS011;72000;42.828;23.382;2023-09-12T13:43:08;6.03;;;2.70;;
82372;SDS011;72000;42.828;23.382;2023-09-12T13:45:34;5.03;;;2.28;;
82372;SDS011;72000;42.828;23.382;2023-09-12T13:48:04;6.22;;;3.00;;
82372;SDS011;72000;42.828;23.382;2023-09-12T13:50:30;7.78;;;2.47;;
82372;SDS011;72000;42.828;23.382;2023-09-12T13:53:00;7.15;;;2.50;;
82372;SDS011;72000;42.828;23.382;2023-09-12T13:55:32;4.78;;;2.55;;
82372;SDS011;72000;42.828;23.382;2023-09-12T13:58:00;5.95;;;2.88;;
82372;SDS011;72000;42.828;23.382;2023-09-12T14:00:27;5.97;;;2.70;;
82372;SDS011;72000;42.828;23.382;2023-09-12T14:02:53;8.30;;;2.50;;
82372;SDS011;72000;42.828;23.382;2023-09-12T14:05:18;5.72;;;2.55;;
82372;SDS011;72000;42.828;23.382;2023-09-12T14:07:44;7.13;;;3.00;;
82372;SDS011;72000;42.828;23.382;2023-09-12T14:10:09;5.20;;;2.30;;
82372;SDS011;72000;42.828;23.382;2023-09-12T14:12:36;5.45;;;2.80;;
82372;SDS011;72000;42.828;23.382;2023-09-12T14:15:01;5.72;;;2.58;;
82372;SDS011;72000;42.828;23.382;2023-09-12T14:17:28;8.27;;;2.67;;
82372;SDS011;72000;42.828;23.382;2023-09-12T14:19:54;5.45;;;2.47;;
82372;SDS011;72000;42.828;23.382;2023-09-12T14:22:20;5.50;;;2.65;;
82372;SDS011;72000;42.828;23.382;2023-09-12T14:24:49;7.45;;;2.70;;
82372;SDS011;72000;42.828;23.382;2023-09-12T14:27:15;5.35;;;2.60;;
82372;SDS011;72000;42.828;23.382;2023-09-12T14:29:41;6.10;;;2.40;;
82372;SDS011;72000;42.828;23.382;2023-09-12T14:32:10;5.32;;;2.50;;
82372;SDS011;72000;42.828;23.382;2023-09-12T14:34:39;5.57;;;2.58;;
82372;SDS011;72000;42.828;23.382;2023-09-12T14:37:05;6.82;;;2.67;;
82372;SDS011;72000;42.828;23.382;2023-09-12T14:39:30;7.00;;;2.60;;
82372;SDS011;72000;42.828;23.382;2023-09-12T14:41:56;6.20;;;2.78;;
82372;SDS011;72000;42.828;23.382;2023-09-12T14:44:22;7.72;;;2.63;;
82372;SDS011;72000;42.828;23.382;2023-09-12T14:46:48;5.93;;;2.13;;
82372;SDS011;72000;42.828;23.382;2023-09-12T14:49:14;6.82;;;2.75;;
82372;SDS011;72000;42.828;23.382;2023-09-12T14:51:40;6.07;;;2.22;;
82372;SDS011;72000;42.828;23.382;2023-09-12T14:54:06;8.88;;;2.70;;
82372;SDS011;72000;42.828;23.382;2023-09-12T14:56:33;4.28;;;2.08;;
82372;SDS011;72000;42.828;23.382;2023-09-12T14:58:59;5.93;;;2.45;;
82372;SDS011;72000;42.828;23.382;2023-09-12T15:01:25;7.13;;;2.85;;
82372;SDS011;72000;42.828;23.382;2023-09-12T15:03:52;7.40;;;2.30;;
82372;SDS011;72000;42.828;23.382;2023-09-12T15:06:18;9.50;;;3.05;;
82372;SDS011;72000;42.828;23.382;2023-09-12T15:08:45;7.93;;;2.90;;
82372;SDS011;72000;42.828;23.382;2023-09-12T15:11:10;6.72;;;2.30;;
82372;SDS011;72000;42.828;23.382;2023-09-12T15:13:36;6.90;;;2.53;;
82372;SDS011;72000;42.828;23.382;2023-09-12T15:16:02;5.20;;;2.70;;
82372;SDS011;72000;42.828;23.382;2023-09-12T15:18:29;8.73;;;2.40;;
82372;SDS011;72000;42.828;23.382;2023-09-12T15:20:54;5.53;;;2.55;;
82372;SDS011;72000;42.828;23.382;2023-09-12T15:23:20;5.45;;;2.22;;
82372;SDS011;72000;42.828;23.382;2023-09-12T15:25:51;7.00;;;2.38;;
82372;SDS011;72000;42.828;23.382;2023-09-12T15:28:16;7.47;;;2.70;;
82372;SDS011;72000;42.828;23.382;2023-09-12T15:30:43;5.38;;;2.42;;
82372;SDS011;72000;42.828;23.382;2023-09-12T15:33:09;6.47;;;2.63;;
82372;SDS011;72000;42.828;23.382;2023-09-12T15:35:35;5.72;;;2.35;;
82372;SDS011;72000;42.828;23.382;2023-09-12T15:38:00;7.68;;;2.67;;
82372;SDS011;72000;42.828;23.382;2023-09-12T15:40:26;4.85;;;2.40;;
82372;SDS011;72000;42.828;23.382;2023-09-12T15:42:52;7.15;;;2.50;;
82372;SDS011;72000;42.828;23.382;2023-09-12T15:45:18;6.22;;;2.65;;
82372;SDS011;72000;42.828;23.382;2023-09-12T15:47:48;5.85;;;2.50;;
82372;SDS011;72000;42.828;23.382;2023-09-12T15:50:14;4.85;;;2.42;;
82372;SDS011;72000;42.828;23.382;2023-09-12T15:52:40;6.70;;;2.70;;
82372;SDS011;72000;42.828;23.382;2023-09-12T15:55:07;5.07;;;2.38;;
82372;SDS011;72000;42.828;23.382;2023-09-12T15:57:34;5.18;;;2.30;;
82372;SDS011;72000;42.828;23.382;2023-09-12T16:00:06;6.07;;;2.50;;
82372;SDS011;72000;42.828;23.382;2023-09-12T16:02:36;6.90;;;2.85;;
82372;SDS011;72000;42.828;23.382;2023-09-12T16:05:02;8.43;;;2.47;;
82372;SDS011;72000;42.828;23.382;2023-09-12T16:07:28;5.50;;;2.45;;
82372;SDS011;72000;42.828;23.382;2023-09-12T16:09:54;5.10;;;2.30;;
82372;SDS011;72000;42.828;23.382;2023-09-12T16:12:19;6.57;;;2.60;;
82372;SDS011;72000;42.828;23.382;2023-09-12T16:14:45;7.72;;;2.30;;
82372;SDS011;72000;42.828;23.382;2023-09-12T16:17:10;5.10;;;2.55;;
82372;SDS011;72000;42.828;23.382;2023-09-12T16:19:36;7.82;;;2.53;;
82372;SDS011;72000;42.828;23.382;2023-09-12T16:22:02;5.05;;;2.40;;
82372;SDS011;72000;42.828;23.382;2023-09-12T16:24:30;5.78;;;2.40;;
82372;SDS011;72000;42.828;23.382;2023-09-12T16:26:55;7.57;;;2.80;;
82372;SDS011;72000;42.828;23.382;2023-09-12T16:29:21;5.82;;;2.30;;
82372;SDS011;72000;42.828;23.382;2023-09-12T16:31:47;5.80;;;2.40;;
82372;SDS011;72000;42.828;23.382;2023-09-12T16:34:13;7.50;;;2.65;;
82372;SDS011;72000;42.828;23.382;2023-09-12T16:36:39;5.88;;;2.40;;
82372;SDS011;72000;42.828;23.382;2023-09-12T16:39:04;9.45;;;3.10;;
82372;SDS011;72000;42.828;23.382;2023-09-12T16:41:30;5.25;;;3.05;;
82372;SDS011;72000;42.828;23.382;2023-09-12T16:43:58;7.60;;;3.13;;
82372;SDS011;72000;42.828;23.382;2023-09-12T16:46:23;6.90;;;2.90;;
82372;SDS011;72000;42.828;23.382;2023-09-12T16:48:49;5.82;;;2.88;;
82372;SDS011;72000;42.828;23.382;2023-09-12T16:51:15;5.80;;;2.55;;
82372;SDS011;72000;42.828;23.382;2023-09-12T16:53:40;9.38;;;2.75;;
82372;SDS011;72000;42.828;23.382;2023-09-12T16:56:06;7.40;;;3.20;;
82372;SDS011;72000;42.828;23.382;2023-09-12T16:58:32;7.97;;;2.63;;
82372;SDS011;72000;42.828;23.382;2023-09-12T17:00:58;5.97;;;2.63;;
82372;SDS011;72000;42.828;23.382;2023-09-12T17:03:24;4.85;;;2.53;;
82372;SDS011;72000;42.828;23.382;2023-09-12T17:05:49;6.45;;;2.45;;
82372;SDS011;72000;42.828;23.382;2023-09-12T17:08:15;5.53;;;2.60;;
82372;SDS011;72000;42.828;23.382;2023-09-12T17:10:41;5.70;;;2.50;;
82372;SDS011;72000;42.828;23.382;2023-09-12T17:13:07;6.30;;;2.75;;
82372;SDS011;72000;42.828;23.382;2023-09-12T17:15:32;8.75;;;2.85;;
82372;SDS011;72000;42.828;23.382;2023-09-12T17:18:03;6.40;;;2.45;;
82372;SDS011;72000;42.828;23.382;2023-09-12T17:20:29;6.82;;;2.40;;